Time;durP1;ratioP1;P1;durP2;ratioP2;P2;SDS_P1;SDS_P2;PMS_P1;PMS_P2;Temp;Humidity;BMP_temperature;BMP_pressure;BME280_temperature;BME280_humidity;BME280_pressure;Samples;Min_cycle;Max_cycle;Signal;HPM_P1;HPM_P2
2022/06/25 00:01:30;;;;;;;2.38;1.85;;;;;;;18.01;76.21;98968.44;4945432;29;20057;-65
2022/06/25 00:03:57;;;;;;;2.85;2.00;;;;;;;17.99;75.83;98962.44;4945906;29;20055;-66
2022/06/25 00:06:24;;;;;;;5.68;3.00;;;;;;;18.02;75.77;98970.13;4945461;29;20404;-66
2022/06/25 00:08:52;;;;;;;3.97;2.25;;;;;;;18.02;75.44;98971.97;4944799;29;20055;-67
2022/06/25 00:14:05;;;;;;;5.80;2.67;;;;;;;18.00;75.47;98971.25;4945372;29;20680;-66
2022/06/25 00:16:32;;;;;;;3.33;2.30;;;;;;;18.01;75.59;98963.09;4945324;29;20059;-66
2022/06/25 00:18:59;;;;;;;4.10;2.05;;;;;;;17.99;75.37;98970.44;4930708;29;20150;-66
2022/06/25 00:21:25;;;;;;;4.00;2.42;;;;;;;17.97;75.54;98972.38;4928997;29;20051;-66
2022/06/25 00:23:54;;;;;;;4.22;2.25;;;;;;;17.95;75.39;98974.34;4929756;29;20051;-66
2022/06/25 00:26:20;;;;;;;3.95;2.38;;;;;;;17.94;75.78;98977.16;4931100;29;20056;-67
2022/06/25 00:28:47;;;;;;;5.80;2.20;;;;;;;17.95;75.79;98981.50;4941989;29;20115;-66
2022/06/25 00:31:14;;;;;;;3.20;2.03;;;;;;;17.95;75.83;98989.53;4942873;29;20048;-66
2022/06/25 00:33:40;;;;;;;5.30;2.67;;;;;;;17.92;75.72;98982.66;4933025;29;22576;-66
2022/06/25 00:36:07;;;;;;;4.38;2.35;;;;;;;17.95;75.65;98986.84;4937334;29;20051;-68
2022/06/25 00:38:33;;;;;;;4.32;2.38;;;;;;;17.96;75.44;98986.69;4941472;29;20050;-65
2022/06/25 00:41:03;;;;;;;3.95;2.30;;;;;;;17.94;75.36;98982.47;4933336;29;20051;-67
2022/06/25 00:43:30;;;;;;;2.72;1.98;;;;;;;17.90;75.97;98983.78;4930244;29;20159;-66
2022/06/25 00:45:57;;;;;;;3.20;2.00;;;;;;;17.90;75.65;98983.78;4929794;29;20431;-67
2022/06/25 00:48:23;;;;;;;2.85;1.95;;;;;;;17.89;75.49;98990.91;4929886;29;20074;-67
2022/06/25 00:50:50;;;;;;;3.70;2.60;;;;;;;17.88;75.56;98991.06;4929740;29;20051;-67
2022/06/25 00:53:19;;;;;;;3.10;2.30;;;;;;;17.87;75.29;99000.03;4935807;29;20049;-66
2022/06/25 00:55:49;;;;;;;5.32;2.45;;;;;;;17.84;75.46;99002.97;4948388;29;20069;-66
2022/06/25 00:58:20;;;;;;;5.88;2.72;;;;;;;17.82;75.50;99003.16;4948471;29;20059;-66
2022/06/25 01:00:47;;;;;;;3.75;2.50;;;;;;;17.81;75.48;99004.94;4930545;28;20051;-66
2022/06/25 01:03:13;;;;;;;4.65;2.10;;;;;;;17.82;75.35;99005.81;4948003;29;20166;-66
2022/06/25 01:05:40;;;;;;;4.75;2.38;;;;;;;17.82;74.97;98995.16;4934864;29;20519;-66
2022/06/25 01:08:07;;;;;;;3.45;2.13;;;;;;;17.84;74.85;99008.31;4910528;29;20054;-65
2022/06/25 01:10:33;;;;;;;2.30;1.90;;;;;;;17.84;75.32;99010.97;4908981;29;20055;-66
2022/06/25 01:13:00;;;;;;;7.38;3.55;;;;;;;17.84;75.07;99010.97;4909890;29;20055;-65
2022/06/25 01:15:27;;;;;;;10.02;2.20;;;;;;;17.83;75.09;99009.31;4909948;29;20059;-67
2022/06/25 01:17:54;;;;;;;3.88;2.25;;;;;;;17.83;75.09;99014.66;4909857;29;20079;-67
2022/06/25 01:20:23;;;;;;;4.53;2.90;;;;;;;17.84;75.15;99021.66;4908971;29;20052;-66
2022/06/25 01:22:51;;;;;;;2.63;1.95;;;;;;;17.85;75.31;99026.03;4909463;29;20056;-67
2022/06/25 01:25:18;;;;;;;4.65;2.58;;;;;;;17.81;75.15;99023.59;4915879;29;20055;-66
2022/06/25 01:27:44;;;;;;;5.30;3.03;;;;;;;17.78;75.19;99031.88;4947849;29;20051;-67
2022/06/25 01:30:12;;;;;;;6.32;2.78;;;;;;;17.80;75.30;99027.28;4947318;28;20075;-67
2022/06/25 01:32:39;;;;;;;2.90;1.80;;;;;;;17.81;75.36;99034.28;4947650;29;20507;-67
2022/06/25 01:35:07;;;;;;;4.57;2.97;;;;;;;17.82;75.45;99032.47;4948722;29;20043;-66
2022/06/25 01:37:34;;;;;;;5.05;2.35;;;;;;;17.83;75.42;99034.16;4948276;29;20579;-66
2022/06/25 01:40:02;;;;;;;6.15;2.50;;;;;;;17.81;74.99;99028.94;4944335;29;20051;-66
2022/06/25 01:45:14;;;;;;;5.00;2.28;;;;;;;17.78;75.29;99031.88;4928142;29;20062;-66
2022/06/25 01:47:40;;;;;;;5.55;2.13;;;;;;;17.79;75.08;99030.91;4929885;29;20050;-66
2022/06/25 01:50:08;;;;;;;3.55;2.92;;;;;;;17.79;75.05;99025.56;4946450;29;20796;-66
2022/06/25 01:52:35;;;;;;;6.10;2.60;;;;;;;17.77;75.17;99024.88;4947400;29;20057;-66
2022/06/25 01:55:03;;;;;;;3.88;2.58;;;;;;;17.79;75.20;99028.22;4947184;29;20051;-66
2022/06/25 01:57:30;;;;;;;3.88;2.67;;;;;;;17.80;75.18;99029.94;4946801;29;20114;-66
2022/06/25 01:59:56;;;;;;;6.95;2.67;;;;;;;17.80;75.39;99034.44;4946210;29;20060;-66
2022/06/25 02:02:23;;;;;;;3.60;2.30;;;;;;;17.78;75.41;99033.69;4946875;29;20071;-66
2022/06/25 02:04:49;;;;;;;7.28;3.17;;;;;;;17.76;75.43;99033.00;4946934;29;20051;-65
2022/06/25 02:07:16;;;;;;;6.20;3.08;;;;;;;17.72;75.61;99036.91;4946949;29;20059;-66
2022/06/25 02:09:43;;;;;;;6.55;3.08;;;;;;;17.68;75.40;99038.19;4946375;29;20157;-66
2022/06/25 02:12:11;;;;;;;5.80;2.40;;;;;;;17.66;75.52;99037.47;4946669;29;20066;-65
2022/06/25 02:14:37;;;;;;;4.05;2.13;;;;;;;17.63;75.88;99051.09;4946595;29;20055;-66
2022/06/25 02:17:04;;;;;;;6.43;3.33;;;;;;;17.61;75.97;99051.22;4946902;29;20054;-65
2022/06/25 02:19:31;;;;;;;4.65;3.03;;;;;;;17.59;76.09;99050.50;4927751;29;20055;-66
2022/06/25 02:21:57;;;;;;;5.50;2.30;;;;;;;17.59;75.94;99046.00;4927207;29;20094;-65
2022/06/25 02:24:24;;;;;;;4.28;2.85;;;;;;;17.58;76.23;99057.66;4927853;29;20495;-65
2022/06/25 02:26:50;;;;;;;4.20;2.55;;;;;;;17.61;75.83;99053.88;4925847;29;20055;-66
2022/06/25 02:29:18;;;;;;;7.35;3.10;;;;;;;17.63;75.83;99056.41;4926863;29;20079;-65
2022/06/25 02:31:44;;;;;;;6.38;2.72;;;;;;;17.61;75.91;99061.88;4927813;29;20047;-65
2022/06/25 02:34:11;;;;;;;6.80;2.85;;;;;;;17.59;76.03;99069.16;4927237;29;20055;-65
2022/06/25 02:36:38;;;;;;;5.10;2.60;;;;;;;17.56;75.90;99064.13;4927504;29;20058;-66
2022/06/25 02:39:04;;;;;;;5.40;3.33;;;;;;;17.54;76.29;99074.91;4926865;29;20048;-65
2022/06/25 02:41:31;;;;;;;4.50;3.05;;;;;;;17.51;76.30;99077.84;4927118;29;20059;-66
2022/06/25 02:43:57;;;;;;;3.33;2.70;;;;;;;17.52;76.34;99081.34;4927306;29;20052;-66
2022/06/25 02:46:26;;;;;;;3.75;2.50;;;;;;;17.51;76.08;99083.19;4942409;29;20811;-66
2022/06/25 02:48:52;;;;;;;7.70;3.40;;;;;;;17.51;75.95;99088.50;4907605;29;20048;-66
2022/06/25 02:51:19;;;;;;;6.30;3.10;;;;;;;17.47;76.26;99083.59;4908019;29;20059;-66
2022/06/25 02:53:45;;;;;;;6.43;3.60;;;;;;;17.43;76.32;99084.88;4908335;29;20060;-66
2022/06/25 02:58:56;;;;;;;3.38;2.42;;;;;;;17.44;76.20;99095.38;4907209;29;20059;-66
2022/06/25 03:01:25;;;;;;;6.63;3.60;;;;;;;17.43;76.38;99095.53;4907921;29;20052;-66
2022/06/25 03:03:52;;;;;;;4.20;2.78;;;;;;;17.41;76.45;99095.66;4909282;29;20062;-66
2022/06/25 03:06:19;;;;;;;5.28;2.90;;;;;;;17.40;76.12;99096.63;4909167;29;20055;-66
2022/06/25 03:08:46;;;;;;;5.43;3.22;;;;;;;17.39;76.32;99098.44;4907987;29;20048;-65
2022/06/25 03:11:13;;;;;;;5.80;2.95;;;;;;;17.37;76.44;99096.88;4907839;29;20056;-65
2022/06/25 03:13:40;;;;;;;7.95;3.13;;;;;;;17.36;76.45;99096.06;4907852;29;20055;-66
2022/06/25 03:16:07;;;;;;;4.70;2.70;;;;;;;17.35;75.82;99097.03;4908007;29;20047;-66
2022/06/25 03:18:37;;;;;;;6.22;2.80;;;;;;;17.35;76.38;99094.38;4907548;29;20056;-66
2022/06/25 03:21:04;;;;;;;7.20;3.38;;;;;;;17.33;75.96;99099.00;4907313;29;20056;-66
2022/06/25 03:23:31;;;;;;;7.18;2.65;;;;;;;17.34;76.26;99098.00;4908064;29;20689;-65
2022/06/25 03:25:58;;;;;;;3.85;2.72;;;;;;;17.31;76.18;99095.63;4916352;29;20058;-65
2022/06/25 03:28:24;;;;;;;5.55;3.00;;;;;;;17.31;75.69;99097.44;4945752;29;20058;-65
2022/06/25 03:30:51;;;;;;;5.95;2.50;;;;;;;17.29;75.60;99092.22;4945233;29;20185;-65
2022/06/25 03:33:18;;;;;;;7.78;2.92;;;;;;;17.31;75.87;99105.44;4931320;29;20769;-66
2022/06/25 03:35:45;;;;;;;4.38;2.90;;;;;;;17.33;75.95;99106.16;4907793;29;20056;-65
2022/06/25 03:38:12;;;;;;;5.13;2.80;;;;;;;17.34;75.81;99098.00;4907456;29;20554;-65
2022/06/25 03:40:38;;;;;;;6.60;3.22;;;;;;;17.31;75.79;99103.59;4914630;29;20056;-65
2022/06/25 03:43:05;;;;;;;4.75;2.50;;;;;;;17.33;75.65;99111.47;4944304;29;20055;-66
2022/06/25 03:45:32;;;;;;;4.45;2.95;;;;;;;17.32;75.79;99102.63;4926698;29;20054;-66
2022/06/25 03:47:58;;;;;;;6.68;3.38;;;;;;;17.33;75.95;99108.81;4926834;29;20143;-67
2022/06/25 03:50:25;;;;;;;4.00;2.70;;;;;;;17.31;75.79;99103.59;4925951;29;20056;-66
2022/06/25 03:52:53;;;;;;;6.95;3.30;;;;;;;17.32;75.99;99101.78;4926315;29;20047;-66
2022/06/25 03:55:19;;;;;;;7.15;3.20;;;;;;;17.30;75.19;99096.59;4929016;29;20156;-66
2022/06/25 03:57:47;;;;;;;4.35;2.58;;;;;;;17.32;75.49;99099.13;4930484;29;20047;-65
2022/06/25 04:00:15;;;;;;;8.07;3.13;;;;;;;17.28;75.49;99098.56;4929799;29;20086;-66
2022/06/25 04:02:41;;;;;;;4.10;2.63;;;;;;;17.26;75.70;99108.50;4933123;29;20051;-66
2022/06/25 04:05:08;;;;;;;6.55;3.15;;;;;;;17.26;75.92;99110.31;4931822;29;20052;-66
2022/06/25 04:07:34;;;;;;;4.18;2.90;;;;;;;17.25;75.47;99106.78;4930119;29;20051;-66
2022/06/25 04:10:03;;;;;;;4.93;2.75;;;;;;;17.24;75.83;99112.28;4929656;29;20048;-66
2022/06/25 04:12:30;;;;;;;6.70;2.95;;;;;;;17.24;75.37;99105.13;4930699;29;20161;-65
2022/06/25 04:14:56;;;;;;;6.63;2.60;;;;;;;17.24;75.88;99107.78;4933311;29;20063;-65
2022/06/25 04:17:23;;;;;;;5.20;3.05;;;;;;;17.21;76.04;99118.72;4936096;29;20053;-65
2022/06/25 04:19:50;;;;;;;10.23;3.42;;;;;;;17.24;75.51;99117.59;4936766;29;20051;-65
2022/06/25 04:22:16;;;;;;;6.43;3.13;;;;;;;17.25;75.74;99119.28;4937391;29;20070;-66
2022/06/25 04:24:43;;;;;;;6.68;2.63;;;;;;;17.24;75.67;99118.44;4928353;29;20427;-66
2022/06/25 04:29:03;;;;;;;5.88;2.65;;;;;;;17.24;75.86;99112.28;4947492;29;20063;-66
2022/06/25 04:29:56;;;;;;;7.50;3.08;;;;;;;17.26;75.40;99121.81;4930060;29;20055;-65
2022/06/25 04:32:23;;;;;;;5.55;2.72;;;;;;;17.29;75.53;99120.72;4929753;29;20074;-66
2022/06/25 04:34:50;;;;;;;5.88;2.90;;;;;;;17.32;75.26;99129.25;4929963;29;20130;-65
2022/06/25 04:37:16;;;;;;;5.05;2.55;;;;;;;17.35;75.12;99134.34;4936894;29;20051;-65
2022/06/25 04:39:43;;;;;;;4.28;2.75;;;;;;;17.38;75.03;99133.22;4950597;29;20189;-65
2022/06/25 04:42:11;;;;;;;4.00;3.20;;;;;;;17.37;75.07;99132.34;4950307;29;20051;-66
2022/06/25 04:44:37;;;;;;;3.97;2.55;;;;;;;17.43;75.03;99133.66;4935140;29;20059;-64
2022/06/25 04:47:05;;;;;;;5.80;2.33;;;;;;;17.48;74.51;99138.59;4929435;29;20047;-66
2022/06/25 04:49:31;;;;;;;4.65;2.25;;;;;;;17.53;74.95;99134.53;4928375;29;20435;-65
2022/06/25 04:51:58;;;;;;;7.78;2.92;;;;;;;17.62;74.47;99137.34;4929229;29;20047;-66
2022/06/25 04:54:24;;;;;;;12.90;3.08;;;;;;;17.73;73.74;99139.91;4928803;29;20056;-65
2022/06/25 04:56:51;;;;;;;8.27;3.22;;;;;;;17.83;72.59;99140.81;4926076;29;20057;-65
2022/06/25 04:59:19;;;;;;;7.03;3.05;;;;;;;17.94;71.61;99142.50;4928731;29;20062;-65
2022/06/25 05:01:45;;;;;;;5.70;3.90;;;;;;;18.06;71.56;99144.06;4929376;29;20051;-65
2022/06/25 05:04:12;;;;;;;6.18;2.80;;;;;;;18.17;70.25;99137.75;4929351;29;20060;-65
2022/06/25 05:06:39;;;;;;;4.15;2.20;;;;;;;18.29;69.62;99147.31;4929085;29;20054;-66
2022/06/25 05:09:05;;;;;;;4.03;2.08;;;;;;;18.32;68.41;99147.03;4928809;29;20058;-65
2022/06/25 05:11:32;;;;;;;5.45;2.65;;;;;;;18.36;67.83;99142.22;4929239;29;20282;-66
2022/06/25 05:13:58;;;;;;;3.30;2.45;;;;;;;18.39;67.36;99149.97;4929312;29;20062;-65
2022/06/25 05:16:26;;;;;;;3.03;2.08;;;;;;;18.55;67.32;99146.72;4928736;29;20557;-65
2022/06/25 05:18:53;;;;;;;5.57;2.03;;;;;;;18.67;66.96;99161.59;4915493;29;20056;-65
2022/06/25 05:21:20;;;;;;;4.45;2.20;;;;;;;18.78;66.39;99149.94;4909548;29;20056;-66
2022/06/25 05:23:46;;;;;;;5.85;2.60;;;;;;;18.83;65.87;99169.09;4909740;29;20059;-65
2022/06/25 05:26:13;;;;;;;7.15;2.70;;;;;;;18.83;65.43;99161.91;4930308;29;20055;-67
2022/06/25 05:28:40;;;;;;;5.00;2.33;;;;;;;18.84;65.37;99157.41;4947525;29;20058;-66
2022/06/25 05:31:07;;;;;;;4.55;2.20;;;;;;;18.84;65.63;99158.22;4946921;29;20051;-66
2022/06/25 05:33:35;;;;;;;5.90;2.83;;;;;;;18.81;66.15;99163.88;4946766;29;20047;-65
2022/06/25 05:36:01;;;;;;;6.90;2.63;;;;;;;18.81;65.65;99171.03;4947285;29;20062;-64
2022/06/25 05:38:28;;;;;;;5.93;2.22;;;;;;;18.79;65.85;99163.16;4947467;29;20070;-66
2022/06/25 05:40:55;;;;;;;12.20;3.08;;;;;;;18.78;65.73;99173.97;4946456;29;20730;-66
2022/06/25 05:43:23;;;;;;;8.07;2.50;;;;;;;18.72;65.94;99170.03;4944452;29;20062;-65
2022/06/25 05:45:49;;;;;;;6.25;2.72;;;;;;;18.70;65.93;99169.31;4928196;29;20051;-66
2022/06/25 05:48:16;;;;;;;6.47;2.53;;;;;;;18.76;65.63;99175.97;4928268;29;20051;-67
2022/06/25 05:50:44;;;;;;;10.60;2.28;;;;;;;18.74;65.83;99165.41;4927433;29;20054;-66
2022/06/25 05:53:11;;;;;;;5.30;2.05;;;;;;;18.80;66.04;99172.88;4927992;29;20052;-65
2022/06/25 05:55:37;;;;;;;7.75;2.40;;;;;;;18.84;65.39;99160.06;4928239;29;20170;-66
2022/06/25 05:58:04;;;;;;;10.52;3.63;;;;;;;18.92;65.53;99173.53;4928342;29;20062;-67
2022/06/25 06:00:31;;;;;;;8.82;2.15;;;;;;;19.11;64.41;99169.97;4927260;29;20055;-67
2022/06/25 06:02:57;;;;;;;4.88;2.15;;;;;;;19.25;64.60;99171.34;4928054;29;20051;-66
2022/06/25 06:05:24;;;;;;;8.20;2.58;;;;;;;19.31;64.55;99178.78;4928602;29;20058;-66
2022/06/25 06:07:52;;;;;;;13.73;3.67;;;;;;;19.40;64.36;99177.06;4927888;29;20055;-66
2022/06/25 06:10:18;;;;;;;6.93;2.17;;;;;;;19.49;63.73;99177.03;4926905;29;20059;-66
2022/06/25 06:12:45;;;;;;;5.65;2.42;;;;;;;19.65;63.29;99180.88;4928429;29;20047;-66
2022/06/25 06:15:11;;;;;;;4.22;2.33;;;;;;;19.71;62.83;99180.31;4927784;29;20469;-66
2022/06/25 06:17:38;;;;;;;5.55;2.42;;;;;;;19.78;62.07;99189.44;4923885;29;20170;-66
2022/06/25 06:20:07;;;;;;;7.88;2.38;;;;;;;19.87;62.04;99185.03;4908037;29;20055;-66
2022/06/25 06:22:33;;;;;;;5.63;2.38;;;;;;;19.99;62.25;99188.34;4908229;29;20052;-66
2022/06/25 06:25:01;;;;;;;5.15;2.38;;;;;;;20.06;61.52;99186.72;4923308;29;20051;-66
2022/06/25 06:27:28;;;;;;;5.35;2.60;;;;;;;20.02;61.91;99188.88;4946973;29;20066;-67
2022/06/25 06:29:55;;;;;;;8.18;2.20;;;;;;;20.04;61.53;99194.91;4939645;29;20047;-67
2022/06/25 06:32:21;;;;;;;7.43;2.28;;;;;;;20.02;61.09;99196.06;4939938;29;20051;-67
2022/06/25 06:34:48;;;;;;;4.90;2.13;;;;;;;19.92;61.56;99199.63;4946089;29;20530;-66
2022/06/25 06:37:14;;;;;;;7.90;2.50;;;;;;;19.97;61.50;99201.88;4946178;29;20647;-67
2022/06/25 06:39:41;;;;;;;6.53;2.88;;;;;;;20.00;61.15;99200.72;4945522;29;20058;-67
2022/06/25 06:42:09;;;;;;;5.80;1.70;;;;;;;20.14;61.31;99203.72;4946412;29;20051;-67
2022/06/25 06:44:36;;;;;;;5.15;2.63;;;;;;;20.20;61.02;99199.59;4932738;29;20142;-66
2022/06/25 06:47:02;;;;;;;3.45;1.77;;;;;;;20.29;61.08;99193.34;4926738;29;20792;-65
2022/06/25 06:49:29;;;;;;;5.82;2.28;;;;;;;20.41;61.38;99193.97;4927108;29;20062;-64
2022/06/25 06:51:56;;;;;;;6.47;2.50;;;;;;;20.52;60.17;99188.34;4927379;29;20055;-65
2022/06/25 06:54:22;;;;;;;8.43;2.50;;;;;;;20.61;59.81;99191.97;4927455;29;20051;-66
2022/06/25 06:56:49;;;;;;;5.65;2.38;;;;;;;20.68;60.34;99190.38;4927237;29;20054;-66
2022/06/25 06:59:17;;;;;;;4.93;2.55;;;;;;;20.73;59.45;99188.06;4923616;29;20511;-65
2022/06/25 07:01:43;;;;;;;5.80;2.20;;;;;;;20.76;59.23;99181.56;4927279;29;20062;-67
2022/06/25 07:04:10;;;;;;;6.18;2.70;;;;;;;20.84;59.11;99184.28;4926905;29;20063;-66
2022/06/25 07:06:36;;;;;;;9.10;2.42;;;;;;;20.90;58.97;99188.19;4927229;29;20048;-66
2022/06/25 07:09:03;;;;;;;4.30;1.83;;;;;;;20.91;58.58;99187.19;4926416;29;20055;-67
2022/06/25 07:11:30;;;;;;;4.43;2.00;;;;;;;20.83;58.36;99184.47;4927399;29;20055;-66
2022/06/25 07:13:57;;;;;;;5.05;2.38;;;;;;;20.82;58.20;99182.75;4926849;29;20051;-66
2022/06/25 07:16:26;;;;;;;7.22;2.40;;;;;;;20.84;58.43;99181.59;4926935;29;20112;-66
2022/06/25 07:18:55;;;;;;;10.80;2.78;;;;;;;20.93;58.85;99186.03;4908583;29;20056;-66
2022/06/25 07:21:22;;;;;;;9.55;4.13;;;;;;;21.09;58.57;99193.34;4926880;29;20105;-66
2022/06/25 07:23:48;;;;;;;6.38;2.35;;;;;;;21.14;57.79;99185.69;4927046;29;20137;-66
2022/06/25 07:26:15;;;;;;;8.48;2.78;;;;;;;21.07;57.35;99186.44;4937429;29;20142;-69
2022/06/25 07:28:45;;;;;;;9.65;2.17;;;;;;;21.06;57.82;99190.97;4945433;28;20160;-66
2022/06/25 07:31:12;;;;;;;3.78;1.95;;;;;;;21.25;57.19;99192.63;4931366;29;20066;-66
2022/06/25 07:33:40;;;;;;;8.52;2.72;;;;;;;21.31;56.72;99188.44;4920357;29;20056;-66
2022/06/25 07:36:07;;;;;;;13.23;2.40;;;;;;;21.36;55.53;99186.13;4922376;29;20134;-65
2022/06/25 07:38:34;;;;;;;5.95;2.50;;;;;;;21.40;56.22;99191.06;4920728;29;20203;-67
2022/06/25 07:41:01;;;;;;;8.10;2.65;;;;;;;21.50;56.10;99190.94;4897613;29;20064;-67
2022/06/25 07:43:28;;;;;;;4.32;2.30;;;;;;;21.63;55.48;99191.34;4921669;29;20113;-67
2022/06/25 07:45:55;;;;;;;6.15;2.00;;;;;;;21.82;55.18;99186.72;4920502;29;20056;-65
2022/06/25 07:48:22;;;;;;;6.45;2.85;;;;;;;21.85;54.82;99189.91;4895535;29;20494;-67
2022/06/25 07:53:34;;;;;;;4.25;2.35;;;;;;;22.18;53.71;99192.69;4918865;29;20103;-66
2022/06/25 07:56:01;;;;;;;5.72;1.95;;;;;;;22.18;54.21;99202.59;4920593;29;20522;-66
2022/06/25 07:58:28;;;;;;;4.68;2.20;;;;;;;22.32;54.46;99193.91;4925300;29;20056;-46
2022/06/25 08:00:54;;;;;;;4.50;2.20;;;;;;;22.57;53.41;99196.63;4919718;29;20052;-47
2022/06/25 08:03:21;;;;;;;4.95;2.13;;;;;;;22.77;53.16;99192.59;4916424;29;20089;-47
2022/06/25 08:05:48;;;;;;;5.65;2.25;;;;;;;22.71;53.01;99186.03;4910936;29;20048;-47
2022/06/25 08:08:16;;;;;;;4.13;2.25;;;;;;;22.80;53.02;99194.94;4910747;29;20728;-47
2022/06/25 08:10:43;;;;;;;4.50;2.22;;;;;;;22.91;52.49;99188.38;4911024;29;20048;-50
2022/06/25 08:13:10;;;;;;;9.45;2.65;;;;;;;23.11;51.99;99192.44;4912540;29;20060;-49
2022/06/25 08:15:36;;;;;;;5.63;3.22;;;;;;;23.37;52.07;99191.38;4911574;29;20079;-44
2022/06/25 08:18:03;;;;;;;11.15;2.78;;;;;;;23.53;51.06;99185.94;4923223;29;20161;-48
2022/06/25 08:20:30;;;;;;;11.80;3.42;;;;;;;23.60;50.91;99191.44;4929274;29;20058;-45
2022/06/25 08:22:57;;;;;;;4.25;1.75;;;;;;;23.61;50.48;99195.84;4930421;29;20059;-49
2022/06/25 08:25:25;;;;;;;11.70;2.25;;;;;;;23.29;51.50;99194.91;4944069;29;20162;-46
2022/06/25 08:27:53;;;;;;;5.93;2.50;;;;;;;23.31;51.79;99186.69;4948169;29;20047;-47
2022/06/25 08:30:21;;;;;;;5.55;2.20;;;;;;;23.23;51.56;99190.22;4947258;29;20066;-48
2022/06/25 08:32:48;;;;;;;6.95;2.53;;;;;;;23.20;52.19;99193.25;4948451;29;20570;-45
2022/06/25 08:35:15;;;;;;;7.43;2.13;;;;;;;23.16;52.67;99197.31;4920701;29;20077;-48
2022/06/25 08:37:44;;;;;;;6.90;2.78;;;;;;;23.17;51.82;99198.97;4948658;28;20054;-46
2022/06/25 08:40:11;;;;;;;5.20;2.13;;;;;;;23.28;51.72;99206.69;4909090;29;20149;-46
2022/06/25 08:42:39;;;;;;;6.50;2.03;;;;;;;23.29;51.76;99203.00;4912225;29;20470;-45
2022/06/25 08:45:07;;;;;;;7.68;2.38;;;;;;;23.34;51.96;99210.53;4927007;29;20110;-47
2022/06/25 08:47:34;;;;;;;6.93;2.25;;;;;;;23.50;51.28;99199.72;4920439;29;20135;-68
2022/06/25 08:50:03;;;;;;;5.07;2.25;;;;;;;23.50;50.01;99212.34;4922649;29;20055;-65
2022/06/25 08:52:31;;;;;;;6.18;2.30;;;;;;;23.50;49.41;99204.25;4913274;29;20055;-65
2022/06/25 08:54:59;;;;;;;10.43;2.92;;;;;;;23.29;49.40;99202.16;4919419;29;20526;-65
2022/06/25 08:57:26;;;;;;;4.45;2.30;;;;;;;23.58;49.29;99198.88;4935013;29;20163;-66
2022/06/25 08:59:56;;;;;;;5.50;2.40;;;;;;;23.90;48.22;99199.75;4925508;29;20134;-66
2022/06/25 09:02:22;;;;;;;3.38;2.05;;;;;;;24.13;48.16;99200.66;4918989;29;20066;-65
2022/06/25 09:04:49;;;;;;;7.28;2.63;;;;;;;24.69;46.38;99194.25;4931432;29;20047;-65
2022/06/25 09:07:18;;;;;;;5.47;1.98;;;;;;;25.09;44.67;99192.22;4948038;29;20495;-66
2022/06/25 09:09:47;;;;;;;7.22;2.28;;;;;;;25.28;44.52;99189.00;4947664;29;20047;-66
2022/06/25 09:12:15;;;;;;;4.40;1.98;;;;;;;25.27;44.43;99182.75;4929866;29;20107;-67
2022/06/25 09:14:42;;;;;;;6.05;2.05;;;;;;;25.23;44.18;99183.34;4912498;29;20047;-66
2022/06/25 09:17:12;;;;;;;5.07;2.80;;;;;;;25.66;44.49;99180.81;4911088;29;20635;-65
2022/06/25 09:19:41;;;;;;;3.60;2.20;;;;;;;26.08;42.93;99180.09;4908725;29;20052;-65
2022/06/25 09:22:09;;;;;;;8.43;2.45;;;;;;;26.49;41.23;99176.78;4868959;29;1196439;-64
2022/06/25 09:24:40;;;;;;;4.18;2.25;;;;;;;27.16;39.86;99178.19;4910357;29;20062;-65
2022/06/25 09:27:07;;;;;;;4.55;1.60;;;;;;;26.92;39.78;99173.22;4925121;29;20063;-65
2022/06/25 09:29:38;;;;;;;6.30;2.05;;;;;;;26.84;40.39;99176.91;4917109;29;20098;-66
2022/06/25 09:32:05;;;;;;;3.78;1.60;;;;;;;26.83;40.03;99177.09;4909805;29;20056;-67
2022/06/25 09:34:35;;;;;;;4.18;1.80;;;;;;;26.23;41.29;99176.53;4892002;29;20062;-66
2022/06/25 09:37:19;;;;;;;3.80;1.83;;;;;;;25.75;41.33;99174.28;4909816;29;20443;-66
2022/06/25 09:39:46;;;;;;;5.28;1.90;;;;;;;25.40;42.53;99175.88;4913201;29;20044;-66
2022/06/25 09:42:20;;;;;;;4.47;2.03;;;;;;;25.07;43.60;99178.91;4928327;29;20056;-67
2022/06/25 09:44:47;;;;;;;;;;;;;;;25.07;43.63;99168.94;4929152;29;20122;-65
2022/06/25 09:47:13;;;;;;;5.15;1.75;;;;;;;24.97;44.25;99170.25;4928678;29;19930;-66
2022/06/25 09:49:41;;;;;;;6.47;2.38;;;;;;;24.96;43.98;99174.78;4927881;29;20059;-65
2022/06/25 09:52:08;;;;;;;6.18;2.22;;;;;;;24.83;45.25;99174.56;4927668;29;20051;-66
2022/06/25 09:54:35;;;;;;;5.55;1.80;;;;;;;24.66;45.05;99167.66;4928149;29;20052;-66
2022/06/25 09:57:02;;;;;;;2.75;1.90;;;;;;;24.84;44.94;99181.66;4928672;29;20056;-66
2022/06/25 09:59:30;;;;;;;4.35;2.35;;;;;;;24.87;44.75;99170.50;4927548;29;20058;-67
2022/06/25 10:01:59;;;;;;;6.47;2.10;;;;;;;24.85;44.72;99180.63;4928252;29;20616;-66
2022/06/25 10:04:28;;;;;;;6.18;2.40;;;;;;;24.79;44.83;99176.81;4936334;29;20044;-65
2022/06/25 10:06:57;;;;;;;3.42;2.10;;;;;;;24.72;45.45;99180.41;4909407;29;20052;-66
2022/06/25 10:09:25;;;;;;;4.50;2.25;;;;;;;24.82;45.34;99178.28;4924585;29;20052;-66
2022/06/25 10:11:52;;;;;;;9.75;2.40;;;;;;;24.76;45.06;99187.09;4928599;29;20051;-66
2022/06/25 10:14:19;;;;;;;6.90;3.42;;;;;;;24.84;44.66;99181.66;4928033;29;20056;-66
2022/06/25 10:16:46;;;;;;;5.50;2.00;;;;;;;25.04;43.80;99173.88;4898934;29;20056;-66
2022/06/25 10:19:15;;;;;;;5.07;1.83;;;;;;;25.14;43.46;99179.84;4918217;29;20060;-67
2022/06/25 10:21:42;;;;;;;3.10;2.25;;;;;;;25.03;44.10;99180.28;4927761;29;20052;-66
2022/06/25 10:24:11;;;;;;;5.85;2.67;;;;;;;24.98;44.49;99178.16;4927928;29;20073;-66
2022/06/25 10:26:39;;;;;;;4.07;2.35;;;;;;;24.98;44.87;99180.84;4927915;29;20051;-66
2022/06/25 10:29:24;;;;;;;5.25;2.90;;;;;;;25.09;46.30;99179.56;4927414;29;20126;-65
2022/06/25 10:31:51;;;;;;;7.53;2.22;;;;;;;25.24;43.72;99182.31;4928061;29;20048;-66
2022/06/25 10:34:17;;;;;;;5.57;1.98;;;;;;;25.14;43.56;99174.44;4927710;29;20052;-66
2022/06/25 10:36:46;;;;;;;5.35;2.25;;;;;;;24.91;44.38;99169.13;4927896;29;20051;-66
2022/06/25 10:39:37;;;;;;;3.88;1.80;;;;;;;24.74;44.13;99173.81;4917992;29;20056;-67
2022/06/25 10:45:52;;;;;;;5.53;2.33;;;;;;;24.57;44.63;99174.97;4926738;29;20098;-67
2022/06/25 10:48:19;;;;;;;10.93;4.07;;;;;;;24.68;45.73;99171.84;4907896;29;20083;-67
2022/06/25 10:50:54;;;;;;;4.55;2.00;;;;;;;24.69;44.43;99167.31;4917857;29;20078;-67
2022/06/25 10:53:27;;;;;;;6.28;1.92;;;;;;;24.66;44.07;99175.72;4928124;29;20078;-66
2022/06/25 10:56:16;;;;;;;6.68;2.35;;;;;;;24.84;44.22;99168.19;4920800;29;20121;-66
2022/06/25 10:58:46;;;;;;;6.70;2.80;;;;;;;24.80;44.39;99180.34;4937119;29;20043;-66
2022/06/25 11:01:21;;;;;;;7.05;2.65;;;;;;;24.69;44.14;99173.53;4927222;29;20074;-66
2022/06/25 11:03:52;;;;;;;8.70;2.92;;;;;;;24.63;44.47;99176.94;4913510;29;20142;-66
2022/06/25 11:06:22;;;;;;;6.57;2.70;;;;;;;24.59;44.70;99176.47;4921383;29;20055;-66
2022/06/25 11:08:50;;;;;;;6.63;2.55;;;;;;;24.50;44.99;99172.16;4926986;29;20047;-66
2022/06/25 11:11:25;;;;;;;7.00;2.58;;;;;;;24.32;45.15;99177.00;4921702;29;20063;-67
2022/06/25 11:13:52;;;;;;;3.95;2.58;;;;;;;24.27;45.90;99174.81;4922131;29;20058;-66
2022/06/25 11:16:19;;;;;;;5.78;2.40;;;;;;;24.29;46.05;99171.94;4935781;29;20062;-66
2022/06/25 11:18:47;;;;;;;5.35;2.80;;;;;;;24.32;46.84;99171.59;4938790;29;20062;-66
2022/06/25 11:21:25;;;;;;;7.00;2.72;;;;;;;24.30;45.90;99179.84;4927010;29;20051;-66
2022/06/25 11:23:52;;;;;;;9.35;4.47;;;;;;;24.32;46.40;99179.69;4914106;29;20043;-66
2022/06/25 11:29:05;;;;;;;7.95;1.80;;;;;;;24.40;46.16;99183.13;4926976;29;20150;-67
2022/06/25 11:31:34;;;;;;;3.58;1.60;;;;;;;24.43;46.14;99188.16;4946304;29;20066;-67
2022/06/25 11:34:03;;;;;;;4.60;1.77;;;;;;;24.45;46.38;99184.47;4946308;29;20055;-66
2022/06/25 11:36:33;;;;;;;4.03;1.92;;;;;;;24.45;46.27;99181.78;4937391;29;20059;-66
2022/06/25 11:38:59;;;;;;;3.72;2.13;;;;;;;24.41;46.29;99181.28;4943913;29;20142;-66
2022/06/25 11:41:28;;;;;;;4.80;1.90;;;;;;;24.45;46.17;99181.78;4918145;29;20650;-66
2022/06/25 11:43:55;;;;;;;4.88;1.73;;;;;;;24.46;46.24;99184.31;4927218;29;20052;-66
2022/06/25 11:46:23;;;;;;;3.35;1.60;;;;;;;24.46;45.83;99181.59;4927083;29;20510;-66
2022/06/25 11:48:51;;;;;;;8.80;2.00;;;;;;;24.42;46.01;99180.28;4926350;29;20086;-66
2022/06/25 11:51:23;;;;;;;5.68;2.13;;;;;;;24.42;46.62;99178.41;4926826;29;20764;-66
2022/06/25 11:53:50;;;;;;;5.72;1.88;;;;;;;24.48;45.69;99179.56;4917389;29;20508;-69